sensor_id;sensor_type;location;lat;lon;timestamp;temperature;humidity
46139;DHT22;32398;49.112;8.598;2022-12-04T00:02:16;4.40;96.70
46139;DHT22;32398;49.112;8.598;2022-12-04T00:04:43;4.40;96.70
46139;DHT22;32398;49.112;8.598;2022-12-04T00:07:09;4.30;96.70
46139;DHT22;32398;49.112;8.598;2022-12-04T00:09:36;4.40;96.70
46139;DHT22;32398;49.112;8.598;2022-12-04T00:12:02;4.40;96.80
46139;DHT22;32398;49.112;8.598;2022-12-04T00:14:29;4.40;96.80
46139;DHT22;32398;49.112;8.598;2022-12-04T00:16:57;4.40;96.80
46139;DHT22;32398;49.112;8.598;2022-12-04T00:19:24;4.40;96.80
46139;DHT22;32398;49.112;8.598;2022-12-04T00:21:50;4.30;96.80
46139;DHT22;32398;49.112;8.598;2022-12-04T00:24:17;4.40;96.80
46139;DHT22;32398;49.112;8.598;2022-12-04T00:26:43;4.30;96.80
46139;DHT22;32398;49.112;8.598;2022-12-04T00:29:10;4.40;96.80
46139;DHT22;32398;49.112;8.598;2022-12-04T00:31:36;4.30;96.80
46139;DHT22;32398;49.112;8.598;2022-12-04T00:34:04;4.30;96.80
46139;DHT22;32398;49.112;8.598;2022-12-04T00:36:31;4.30;96.80
46139;DHT22;32398;49.112;8.598;2022-12-04T00:38:58;4.30;96.80
46139;DHT22;32398;49.112;8.598;2022-12-04T00:41:26;4.30;96.80
46139;DHT22;32398;49.112;8.598;2022-12-04T00:43:53;4.30;96.80
46139;DHT22;32398;49.112;8.598;2022-12-04T00:46:19;4.30;96.80
46139;DHT22;32398;49.112;8.598;2022-12-04T00:48:46;4.30;96.80
46139;DHT22;32398;49.112;8.598;2022-12-04T00:51:16;4.30;96.80
46139;DHT22;32398;49.112;8.598;2022-12-04T00:53:43;4.30;96.80
46139;DHT22;32398;49.112;8.598;2022-12-04T00:56:10;4.30;96.80
46139;DHT22;32398;49.112;8.598;2022-12-04T00:58:37;4.30;96.80
46139;DHT22;32398;49.112;8.598;2022-12-04T01:01:04;4.30;96.80
46139;DHT22;32398;49.112;8.598;2022-12-04T01:03:31;4.30;96.80
46139;DHT22;32398;49.112;8.598;2022-12-04T01:05:58;4.30;96.80
46139;DHT22;32398;49.112;8.598;2022-12-04T01:08:26;4.30;96.80
46139;DHT22;32398;49.112;8.598;2022-12-04T01:10:53;4.20;96.80
46139;DHT22;32398;49.112;8.598;2022-12-04T01:13:21;4.30;96.80
46139;DHT22;32398;49.112;8.598;2022-12-04T01:15:47;4.20;96.70
46139;DHT22;32398;49.112;8.598;2022-12-04T01:18:14;4.20;96.70
46139;DHT22;32398;49.112;8.598;2022-12-04T01:20:45;4.30;96.70
46139;DHT22;32398;49.112;8.598;2022-12-04T01:23:12;4.20;96.70
46139;DHT22;32398;49.112;8.598;2022-12-04T01:25:40;4.30;96.80
46139;DHT22;32398;49.112;8.598;2022-12-04T01:28:06;4.20;96.80
46139;DHT22;32398;49.112;8.598;2022-12-04T01:30:33;4.20;96.80
46139;DHT22;32398;49.112;8.598;2022-12-04T01:32:59;4.20;96.80
46139;DHT22;32398;49.112;8.598;2022-12-04T01:35:26;4.20;96.80
46139;DHT22;32398;49.112;8.598;2022-12-04T01:37:52;4.20;96.80
46139;DHT22;32398;49.112;8.598;2022-12-04T01:40:19;4.20;97.10
46139;DHT22;32398;49.112;8.598;2022-12-04T01:42:47;4.20;96.80
46139;DHT22;32398;49.112;8.598;2022-12-04T01:48:01;4.20;96.80
46139;DHT22;32398;49.112;8.598;2022-12-04T01:50:29;4.20;96.80
46139;DHT22;32398;49.112;8.598;2022-12-04T01:52:55;4.20;96.80
46139;DHT22;32398;49.112;8.598;2022-12-04T01:55:22;4.20;96.80
46139;DHT22;32398;49.112;8.598;2022-12-04T01:57:50;4.20;96.80
46139;DHT22;32398;49.112;8.598;2022-12-04T02:00:17;4.10;96.80
46139;DHT22;32398;49.112;8.598;2022-12-04T02:02:44;4.20;96.80
46139;DHT22;32398;49.112;8.598;2022-12-04T02:05:12;4.20;96.80
46139;DHT22;32398;49.112;8.598;2022-12-04T02:07:39;4.20;96.80
46139;DHT22;32398;49.112;8.598;2022-12-04T02:10:06;4.10;96.80
46139;DHT22;32398;49.112;8.598;2022-12-04T02:12:35;4.10;96.80
46139;DHT22;32398;49.112;8.598;2022-12-04T02:15:06;4.10;96.80
46139;DHT22;32398;49.112;8.598;2022-12-04T02:17:35;4.20;96.90
46139;DHT22;32398;49.112;8.598;2022-12-04T02:20:06;4.10;96.90
46139;DHT22;32398;49.112;8.598;2022-12-04T02:22:44;4.20;97.20
46139;DHT22;32398;49.112;8.598;2022-12-04T02:25:18;4.10;96.90
46139;DHT22;32398;49.112;8.598;2022-12-04T02:27:57;4.10;96.90
46139;DHT22;32398;49.112;8.598;2022-12-04T02:30:25;4.10;96.90
46139;DHT22;32398;49.112;8.598;2022-12-04T02:32:54;4.10;96.90
46139;DHT22;32398;49.112;8.598;2022-12-04T02:35:24;4.10;96.90
46139;DHT22;32398;49.112;8.598;2022-12-04T02:37:52;4.10;96.90
46139;DHT22;32398;49.112;8.598;2022-12-04T02:40:22;4.10;96.90
46139;DHT22;32398;49.112;8.598;2022-12-04T02:42:52;4.10;96.90
46139;DHT22;32398;49.112;8.598;2022-12-04T02:45:24;4.10;96.90
46139;DHT22;32398;49.112;8.598;2022-12-04T02:47:51;4.10;97.00
46139;DHT22;32398;49.112;8.598;2022-12-04T02:50:19;4.10;97.00
46139;DHT22;32398;49.112;8.598;2022-12-04T02:52:48;4.10;97.00
46139;DHT22;32398;49.112;8.598;2022-12-04T02:55:16;4.10;97.00
46139;DHT22;32398;49.112;8.598;2022-12-04T02:57:45;4.10;96.90
46139;DHT22;32398;49.112;8.598;2022-12-04T03:00:14;4.10;96.90
46139;DHT22;32398;49.112;8.598;2022-12-04T03:02:44;4.10;97.00
46139;DHT22;32398;49.112;8.598;2022-12-04T03:05:12;4.10;96.90
46139;DHT22;32398;49.112;8.598;2022-12-04T03:07:42;4.10;96.90
46139;DHT22;32398;49.112;8.598;2022-12-04T03:10:12;4.10;97.00
46139;DHT22;32398;49.112;8.598;2022-12-04T03:12:41;4.10;97.00
46139;DHT22;32398;49.112;8.598;2022-12-04T03:15:10;4.10;97.00
46139;DHT22;32398;49.112;8.598;2022-12-04T03:17:41;4.10;97.00
46139;DHT22;32398;49.112;8.598;2022-12-04T03:20:13;4.10;97.00
46139;DHT22;32398;49.112;8.598;2022-12-04T03:22:41;4.00;96.90
46139;DHT22;32398;49.112;8.598;2022-12-04T03:25:09;4.10;96.90
46139;DHT22;32398;49.112;8.598;2022-12-04T03:27:38;4.10;96.90
46139;DHT22;32398;49.112;8.598;2022-12-04T03:30:06;4.10;96.90
46139;DHT22;32398;49.112;8.598;2022-12-04T03:32:35;4.00;96.90
46139;DHT22;32398;49.112;8.598;2022-12-04T03:35:03;4.10;96.90
46139;DHT22;32398;49.112;8.598;2022-12-04T03:37:33;4.00;97.00
46139;DHT22;32398;49.112;8.598;2022-12-04T03:40:02;4.00;97.00
46139;DHT22;32398;49.112;8.598;2022-12-04T03:42:32;4.00;97.00
46139;DHT22;32398;49.112;8.598;2022-12-04T03:45:03;4.10;97.10
46139;DHT22;32398;49.112;8.598;2022-12-04T03:47:34;4.00;97.00
46139;DHT22;32398;49.112;8.598;2022-12-04T03:50:05;4.00;97.30
46139;DHT22;32398;49.112;8.598;2022-12-04T03:52:35;4.00;97.00
46139;DHT22;32398;49.112;8.598;2022-12-04T03:55:03;4.00;97.10
46139;DHT22;32398;49.112;8.598;2022-12-04T03:57:33;4.00;97.10
46139;DHT22;32398;49.112;8.598;2022-12-04T04:00:03;4.00;97.10
46139;DHT22;32398;49.112;8.598;2022-12-04T04:02:31;4.10;97.20
46139;DHT22;32398;49.112;8.598;2022-12-04T04:04:59;4.10;97.20
46139;DHT22;32398;49.112;8.598;2022-12-04T04:07:27;4.00;97.10
46139;DHT22;32398;49.112;8.598;2022-12-04T04:09:57;4.00;97.10
46139;DHT22;32398;49.112;8.598;2022-12-04T04:12:26;4.00;97.10
46139;DHT22;32398;49.112;8.598;2022-12-04T04:14:54;4.00;97.10
46139;DHT22;32398;49.112;8.598;2022-12-04T04:17:48;4.00;97.00
46139;DHT22;32398;49.112;8.598;2022-12-04T04:20:36;4.00;97.00
46139;DHT22;32398;49.112;8.598;2022-12-04T04:23:20;4.00;97.10
46139;DHT22;32398;49.112;8.598;2022-12-04T04:26:06;4.00;97.00
46139;DHT22;32398;49.112;8.598;2022-12-04T04:28:34;4.00;97.00
46139;DHT22;32398;49.112;8.598;2022-12-04T04:31:04;4.00;97.00
46139;DHT22;32398;49.112;8.598;2022-12-04T04:33:31;4.00;97.00
46139;DHT22;32398;49.112;8.598;2022-12-04T04:36:03;4.00;97.00
46139;DHT22;32398;49.112;8.598;2022-12-04T04:38:33;4.00;97.00
46139;DHT22;32398;49.112;8.598;2022-12-04T04:41:03;4.00;97.00
46139;DHT22;32398;49.112;8.598;2022-12-04T04:43:34;4.00;97.00
46139;DHT22;32398;49.112;8.598;2022-12-04T04:46:03;4.00;97.00
46139;DHT22;32398;49.112;8.598;2022-12-04T04:48:31;4.00;97.00
46139;DHT22;32398;49.112;8.598;2022-12-04T04:50:59;4.00;97.00
46139;DHT22;32398;49.112;8.598;2022-12-04T04:53:28;4.00;97.10
46139;DHT22;32398;49.112;8.598;2022-12-04T04:55:55;4.00;97.10
46139;DHT22;32398;49.112;8.598;2022-12-04T04:58:22;4.00;97.10
46139;DHT22;32398;49.112;8.598;2022-12-04T05:00:52;4.00;97.10
46139;DHT22;32398;49.112;8.598;2022-12-04T05:03:21;4.00;97.20
46139;DHT22;32398;49.112;8.598;2022-12-04T05:05:49;4.00;97.20
46139;DHT22;32398;49.112;8.598;2022-12-04T05:08:15;4.00;97.20
46139;DHT22;32398;49.112;8.598;2022-12-04T05:10:42;4.00;97.20
46139;DHT22;32398;49.112;8.598;2022-12-04T05:13:09;4.00;97.10
46139;DHT22;32398;49.112;8.598;2022-12-04T05:15:36;4.00;97.20
46139;DHT22;32398;49.112;8.598;2022-12-04T05:18:04;4.00;97.20
46139;DHT22;32398;49.112;8.598;2022-12-04T05:20:31;4.00;97.20
46139;DHT22;32398;49.112;8.598;2022-12-04T05:22:57;4.00;97.20
46139;DHT22;32398;49.112;8.598;2022-12-04T05:25:23;4.00;97.20
46139;DHT22;32398;49.112;8.598;2022-12-04T05:27:50;4.00;97.20
46139;DHT22;32398;49.112;8.598;2022-12-04T05:30:17;4.00;97.20
46139;DHT22;32398;49.112;8.598;2022-12-04T05:32:43;4.00;97.20
46139;DHT22;32398;49.112;8.598;2022-12-04T05:35:12;4.00;97.20
46139;DHT22;32398;49.112;8.598;2022-12-04T05:37:39;4.00;97.20
46139;DHT22;32398;49.112;8.598;2022-12-04T05:40:06;4.00;97.20
46139;DHT22;32398;49.112;8.598;2022-12-04T05:42:33;4.00;97.20
46139;DHT22;32398;49.112;8.598;2022-12-04T05:44:59;4.00;97.20
46139;DHT22;32398;49.112;8.598;2022-12-04T05:47:26;4.00;97.20
46139;DHT22;32398;49.112;8.598;2022-12-04T05:49:52;4.00;97.20
46139;DHT22;32398;49.112;8.598;2022-12-04T05:52:20;4.00;97.20
46139;DHT22;32398;49.112;8.598;2022-12-04T05:54:47;4.00;97.20
46139;DHT22;32398;49.112;8.598;2022-12-04T05:57:13;4.00;97.20
46139;DHT22;32398;49.112;8.598;2022-12-04T05:59:40;4.00;97.20
46139;DHT22;32398;49.112;8.598;2022-12-04T06:02:07;4.00;97.20
46139;DHT22;32398;49.112;8.598;2022-12-04T06:04:35;4.00;97.20
46139;DHT22;32398;49.112;8.598;2022-12-04T06:07:01;4.00;97.20
46139;DHT22;32398;49.112;8.598;2022-12-04T06:09:29;4.00;97.30
46139;DHT22;32398;49.112;8.598;2022-12-04T06:11:56;4.00;97.20
46139;DHT22;32398;49.112;8.598;2022-12-04T06:14:23;3.90;97.20
46139;DHT22;32398;49.112;8.598;2022-12-04T06:16:49;4.00;97.20
46139;DHT22;32398;49.112;8.598;2022-12-04T06:19:17;4.00;97.20
46139;DHT22;32398;49.112;8.598;2022-12-04T06:21:45;3.90;97.20
46139;DHT22;32398;49.112;8.598;2022-12-04T06:24:12;4.00;97.20
46139;DHT22;32398;49.112;8.598;2022-12-04T06:26:40;4.00;97.20
46139;DHT22;32398;49.112;8.598;2022-12-04T06:29:08;4.00;97.40
46139;DHT22;32398;49.112;8.598;2022-12-04T06:31:35;3.90;97.20
46139;DHT22;32398;49.112;8.598;2022-12-04T06:34:02;4.00;97.20
46139;DHT22;32398;49.112;8.598;2022-12-04T06:36:29;3.90;97.20
46139;DHT22;32398;49.112;8.598;2022-12-04T06:38:56;4.00;97.20
46139;DHT22;32398;49.112;8.598;2022-12-04T06:41:23;4.00;97.30
46139;DHT22;32398;49.112;8.598;2022-12-04T06:43:51;4.00;97.20
46139;DHT22;32398;49.112;8.598;2022-12-04T06:46:18;4.00;97.30
46139;DHT22;32398;49.112;8.598;2022-12-04T06:48:45;3.90;97.20
46139;DHT22;32398;49.112;8.598;2022-12-04T06:51:13;4.00;97.30
46139;DHT22;32398;49.112;8.598;2022-12-04T06:53:40;4.00;97.20
46139;DHT22;32398;49.112;8.598;2022-12-04T06:56:08;4.00;97.20
46139;DHT22;32398;49.112;8.598;2022-12-04T06:58:35;3.90;97.20
46139;DHT22;32398;49.112;8.598;2022-12-04T07:01:06;3.90;97.30
46139;DHT22;32398;49.112;8.598;2022-12-04T07:03:32;3.90;97.20
46139;DHT22;32398;49.112;8.598;2022-12-04T07:06:08;3.90;97.30
46139;DHT22;32398;49.112;8.598;2022-12-04T07:08:34;3.90;97.30
46139;DHT22;32398;49.112;8.598;2022-12-04T07:11:01;4.00;97.30
46139;DHT22;32398;49.112;8.598;2022-12-04T07:13:27;4.00;97.30
46139;DHT22;32398;49.112;8.598;2022-12-04T07:15:54;3.90;97.30
46139;DHT22;32398;49.112;8.598;2022-12-04T07:18:22;4.00;97.30
46139;DHT22;32398;49.112;8.598;2022-12-04T07:20:48;4.00;97.30
46139;DHT22;32398;49.112;8.598;2022-12-04T07:23:15;3.90;97.30
46139;DHT22;32398;49.112;8.598;2022-12-04T07:25:42;3.90;97.30
46139;DHT22;32398;49.112;8.598;2022-12-04T07:28:08;4.00;97.40
46139;DHT22;32398;49.112;8.598;2022-12-04T07:30:35;4.00;97.30
46139;DHT22;32398;49.112;8.598;2022-12-04T07:33:02;4.00;97.30
46139;DHT22;32398;49.112;8.598;2022-12-04T07:35:30;4.00;97.30
46139;DHT22;32398;49.112;8.598;2022-12-04T07:37:56;4.00;97.30
46139;DHT22;32398;49.112;8.598;2022-12-04T07:40:23;4.00;97.30
46139;DHT22;32398;49.112;8.598;2022-12-04T07:42:50;4.00;97.30
46139;DHT22;32398;49.112;8.598;2022-12-04T07:45:16;4.00;97.30
46139;DHT22;32398;49.112;8.598;2022-12-04T07:47:43;4.00;97.30
46139;DHT22;32398;49.112;8.598;2022-12-04T07:50:09;4.00;97.30
46139;DHT22;32398;49.112;8.598;2022-12-04T07:52:37;4.00;97.30
46139;DHT22;32398;49.112;8.598;2022-12-04T07:55:04;4.00;97.30
46139;DHT22;32398;49.112;8.598;2022-12-04T07:57:31;4.00;97.30
46139;DHT22;32398;49.112;8.598;2022-12-04T07:59:58;4.00;97.30
46139;DHT22;32398;49.112;8.598;2022-12-04T08:02:25;4.00;97.30
46139;DHT22;32398;49.112;8.598;2022-12-04T08:04:51;4.00;97.30
46139;DHT22;32398;49.112;8.598;2022-12-04T08:07:18;3.90;97.30
46139;DHT22;32398;49.112;8.598;2022-12-04T08:09:46;4.00;97.30
46139;DHT22;32398;49.112;8.598;2022-12-04T08:12:12;4.00;97.30
46139;DHT22;32398;49.112;8.598;2022-12-04T08:14:39;4.00;97.30
46139;DHT22;32398;49.112;8.598;2022-12-04T08:17:05;4.00;97.30
46139;DHT22;32398;49.112;8.598;2022-12-04T08:19:32;4.00;97.30
46139;DHT22;32398;49.112;8.598;2022-12-04T08:21:58;4.00;97.30
46139;DHT22;32398;49.112;8.598;2022-12-04T08:24:25;3.90;97.30
46139;DHT22;32398;49.112;8.598;2022-12-04T08:26:53;4.00;97.30
46139;DHT22;32398;49.112;8.598;2022-12-04T08:29:19;4.00;97.30
46139;DHT22;32398;49.112;8.598;2022-12-04T08:31:46;4.00;97.30
46139;DHT22;32398;49.112;8.598;2022-12-04T08:34:13;4.00;97.30
46139;DHT22;32398;49.112;8.598;2022-12-04T08:36:40;4.00;97.30
46139;DHT22;32398;49.112;8.598;2022-12-04T08:39:06;4.00;97.30
46139;DHT22;32398;49.112;8.598;2022-12-04T08:41:33;4.00;97.30
46139;DHT22;32398;49.112;8.598;2022-12-04T08:44:00;4.00;97.30
46139;DHT22;32398;49.112;8.598;2022-12-04T08:46:27;4.00;97.20
46139;DHT22;32398;49.112;8.598;2022-12-04T08:48:54;4.00;97.20
46139;DHT22;32398;49.112;8.598;2022-12-04T08:51:22;4.00;97.30
46139;DHT22;32398;49.112;8.598;2022-12-04T08:53:51;4.00;97.30
46139;DHT22;32398;49.112;8.598;2022-12-04T08:56:18;4.00;97.20
46139;DHT22;32398;49.112;8.598;2022-12-04T08:58:44;4.00;97.20
46139;DHT22;32398;49.112;8.598;2022-12-04T09:01:13;4.00;97.30
46139;DHT22;32398;49.112;8.598;2022-12-04T09:03:40;4.00;97.30
46139;DHT22;32398;49.112;8.598;2022-12-04T09:06:07;4.00;97.30
46139;DHT22;32398;49.112;8.598;2022-12-04T09:08:34;4.00;97.30
46139;DHT22;32398;49.112;8.598;2022-12-04T09:11:02;4.00;97.30
46139;DHT22;32398;49.112;8.598;2022-12-04T09:13:28;4.00;97.30
46139;DHT22;32398;49.112;8.598;2022-12-04T09:15:55;4.00;97.30
46139;DHT22;32398;49.112;8.598;2022-12-04T09:18:23;4.00;97.30
46139;DHT22;32398;49.112;8.598;2022-12-04T09:20:54;4.00;97.30
46139;DHT22;32398;49.112;8.598;2022-12-04T09:23:20;4.00;97.20
46139;DHT22;32398;49.112;8.598;2022-12-04T09:25:47;4.00;97.30
46139;DHT22;32398;49.112;8.598;2022-12-04T09:28:13;4.00;97.30
46139;DHT22;32398;49.112;8.598;2022-12-04T09:30:40;4.00;97.20
46139;DHT22;32398;49.112;8.598;2022-12-04T09:33:07;4.10;97.20
46139;DHT22;32398;49.112;8.598;2022-12-04T09:35:34;4.10;97.30
46139;DHT22;32398;49.112;8.598;2022-12-04T09:38:03;4.00;97.30
46139;DHT22;32398;49.112;8.598;2022-12-04T09:40:32;4.10;97.30
46139;DHT22;32398;49.112;8.598;2022-12-04T09:43:01;4.10;97.60
46139;DHT22;32398;49.112;8.598;2022-12-04T09:45:32;4.00;97.20
46139;DHT22;32398;49.112;8.598;2022-12-04T09:48:02;4.10;97.20
46139;DHT22;32398;49.112;8.598;2022-12-04T09:50:36;4.10;97.20
46139;DHT22;32398;49.112;8.598;2022-12-04T09:53:08;4.00;97.20
46139;DHT22;32398;49.112;8.598;2022-12-04T09:55:36;4.10;97.20
46139;DHT22;32398;49.112;8.598;2022-12-04T09:58:05;4.10;97.30
46139;DHT22;32398;49.112;8.598;2022-12-04T10:00:33;4.00;97.20
46139;DHT22;32398;49.112;8.598;2022-12-04T10:03:02;4.10;97.20
46139;DHT22;32398;49.112;8.598;2022-12-04T10:05:34;4.00;97.20
46139;DHT22;32398;49.112;8.598;2022-12-04T10:08:02;4.10;97.20
46139;DHT22;32398;49.112;8.598;2022-12-04T10:10:34;4.10;97.30
46139;DHT22;32398;49.112;8.598;2022-12-04T10:13:04;4.10;97.30
46139;DHT22;32398;49.112;8.598;2022-12-04T10:15:36;4.10;97.30
46139;DHT22;32398;49.112;8.598;2022-12-04T10:18:15;4.20;97.40
46139;DHT22;32398;49.112;8.598;2022-12-04T10:20:52;4.10;97.30
46139;DHT22;32398;49.112;8.598;2022-12-04T10:23:24;4.10;97.30
46139;DHT22;32398;49.112;8.598;2022-12-04T10:25:54;4.10;97.20
46139;DHT22;32398;49.112;8.598;2022-12-04T10:28:21;4.10;97.20
46139;DHT22;32398;49.112;8.598;2022-12-04T10:30:50;4.10;97.20
46139;DHT22;32398;49.112;8.598;2022-12-04T10:33:18;4.20;97.20
46139;DHT22;32398;49.112;8.598;2022-12-04T10:35:46;4.10;97.20
46139;DHT22;32398;49.112;8.598;2022-12-04T10:38:18;4.10;97.20
46139;DHT22;32398;49.112;8.598;2022-12-04T10:40:49;4.20;97.20
46139;DHT22;32398;49.112;8.598;2022-12-04T10:43:29;4.10;97.20
46139;DHT22;32398;49.112;8.598;2022-12-04T10:45:58;4.20;97.20
46139;DHT22;32398;49.112;8.598;2022-12-04T10:48:25;4.20;97.20
46139;DHT22;32398;49.112;8.598;2022-12-04T10:50:53;4.20;97.20
46139;DHT22;32398;49.112;8.598;2022-12-04T10:53:20;4.20;97.10
46139;DHT22;32398;49.112;8.598;2022-12-04T10:55:52;4.20;97.10
46139;DHT22;32398;49.112;8.598;2022-12-04T10:58:20;4.20;97.10
46139;DHT22;32398;49.112;8.598;2022-12-04T11:00:56;4.20;97.10
46139;DHT22;32398;49.112;8.598;2022-12-04T11:03:26;4.20;97.10
46139;DHT22;32398;49.112;8.598;2022-12-04T11:05:54;4.20;97.10
46139;DHT22;32398;49.112;8.598;2022-12-04T11:08:22;4.20;97.10
46139;DHT22;32398;49.112;8.598;2022-12-04T11:10:55;4.20;97.10
46139;DHT22;32398;49.112;8.598;2022-12-04T11:13:23;4.20;97.10
46139;DHT22;32398;49.112;8.598;2022-12-04T11:15:51;4.20;97.10
46139;DHT22;32398;49.112;8.598;2022-12-04T11:18:18;4.20;97.00
46139;DHT22;32398;49.112;8.598;2022-12-04T11:20:48;4.20;97.00
46139;DHT22;32398;49.112;8.598;2022-12-04T11:23:16;4.20;97.00
46139;DHT22;32398;49.112;8.598;2022-12-04T11:25:44;4.30;97.00
46139;DHT22;32398;49.112;8.598;2022-12-04T11:28:12;4.30;97.00
46139;DHT22;32398;49.112;8.598;2022-12-04T11:30:45;4.30;97.10
46139;DHT22;32398;49.112;8.598;2022-12-04T11:33:14;4.20;97.00
46139;DHT22;32398;49.112;8.598;2022-12-04T11:35:42;4.30;97.10
46139;DHT22;32398;49.112;8.598;2022-12-04T11:38:16;4.30;97.10
46139;DHT22;32398;49.112;8.598;2022-12-04T11:40:44;4.30;97.10
46139;DHT22;32398;49.112;8.598;2022-12-04T11:43:12;4.30;97.40
46139;DHT22;32398;49.112;8.598;2022-12-04T11:45:39;4.30;97.10
46139;DHT22;32398;49.112;8.598;2022-12-04T11:48:13;4.30;97.10
46139;DHT22;32398;49.112;8.598;2022-12-04T11:50:43;4.30;97.10
46139;DHT22;32398;49.112;8.598;2022-12-04T11:53:14;4.30;97.10
46139;DHT22;32398;49.112;8.598;2022-12-04T11:55:55;4.30;97.10
46139;DHT22;32398;49.112;8.598;2022-12-04T11:58:30;4.30;97.10
46139;DHT22;32398;49.112;8.598;2022-12-04T12:01:04;4.30;97.20
46139;DHT22;32398;49.112;8.598;2022-12-04T12:03:38;4.30;97.10
46139;DHT22;32398;49.112;8.598;2022-12-04T12:06:12;4.30;97.10
46139;DHT22;32398;49.112;8.598;2022-12-04T12:08:51;4.40;97.20
46139;DHT22;32398;49.112;8.598;2022-12-04T12:11:22;4.30;97.10
46139;DHT22;32398;49.112;8.598;2022-12-04T12:13:53;4.30;97.10
46139;DHT22;32398;49.112;8.598;2022-12-04T12:16:25;4.30;97.10
46139;DHT22;32398;49.112;8.598;2022-12-04T12:19:06;4.30;97.10
46139;DHT22;32398;49.112;8.598;2022-12-04T12:21:38;4.30;97.00
46139;DHT22;32398;49.112;8.598;2022-12-04T12:24:11;4.30;97.00
46139;DHT22;32398;49.112;8.598;2022-12-04T12:26:44;4.40;97.10
46139;DHT22;32398;49.112;8.598;2022-12-04T12:29:14;4.40;97.10
46139;DHT22;32398;49.112;8.598;2022-12-04T12:31:46;4.30;97.00
46139;DHT22;32398;49.112;8.598;2022-12-04T12:34:20;4.40;97.10
46139;DHT22;32398;49.112;8.598;2022-12-04T12:36:48;4.30;97.00
46139;DHT22;32398;49.112;8.598;2022-12-04T12:39:17;4.30;97.00
46139;DHT22;32398;49.112;8.598;2022-12-04T12:41:47;4.30;97.00
46139;DHT22;32398;49.112;8.598;2022-12-04T12:44:16;4.40;97.00
46139;DHT22;32398;49.112;8.598;2022-12-04T12:46:45;4.30;96.90
46139;DHT22;32398;49.112;8.598;2022-12-04T12:49:17;4.40;97.00
46139;DHT22;32398;49.112;8.598;2022-12-04T12:51:49;4.40;97.00
46139;DHT22;32398;49.112;8.598;2022-12-04T12:54:20;4.40;97.10
46139;DHT22;32398;49.112;8.598;2022-12-04T12:56:52;4.40;97.10
46139;DHT22;32398;49.112;8.598;2022-12-04T12:59:20;4.40;97.10
46139;DHT22;32398;49.112;8.598;2022-12-04T13:01:49;4.40;97.10
46139;DHT22;32398;49.112;8.598;2022-12-04T13:04:18;4.40;97.10
46139;DHT22;32398;49.112;8.598;2022-12-04T13:06:50;4.40;97.20
46139;DHT22;32398;49.112;8.598;2022-12-04T13:09:19;4.40;97.20
46139;DHT22;32398;49.112;8.598;2022-12-04T13:11:49;4.40;97.10
46139;DHT22;32398;49.112;8.598;2022-12-04T13:14:17;4.30;97.00
46139;DHT22;32398;49.112;8.598;2022-12-04T13:16:44;4.40;97.00
46139;DHT22;32398;49.112;8.598;2022-12-04T13:19:14;4.40;97.10
46139;DHT22;32398;49.112;8.598;2022-12-04T13:21:43;4.40;97.10
46139;DHT22;32398;49.112;8.598;2022-12-04T13:27:04;4.40;97.20
46139;DHT22;32398;49.112;8.598;2022-12-04T13:29:37;4.40;97.10
46139;DHT22;32398;49.112;8.598;2022-12-04T13:32:27;4.40;97.10
46139;DHT22;32398;49.112;8.598;2022-12-04T13:34:56;4.40;97.10
46139;DHT22;32398;49.112;8.598;2022-12-04T13:37:29;4.40;97.20
46139;DHT22;32398;49.112;8.598;2022-12-04T13:42:44;4.40;97.20
46139;DHT22;32398;49.112;8.598;2022-12-04T13:45:11;4.40;97.20
46139;DHT22;32398;49.112;8.598;2022-12-04T13:47:54;4.40;97.30
46139;DHT22;32398;49.112;8.598;2022-12-04T13:50:25;4.40;97.30
46139;DHT22;32398;49.112;8.598;2022-12-04T13:52:52;4.40;97.20
46139;DHT22;32398;49.112;8.598;2022-12-04T13:55:27;4.40;97.20
46139;DHT22;32398;49.112;8.598;2022-12-04T13:57:56;4.40;97.20
46139;DHT22;32398;49.112;8.598;2022-12-04T14:00:24;4.40;97.30
46139;DHT22;32398;49.112;8.598;2022-12-04T14:02:53;4.40;97.30
46139;DHT22;32398;49.112;8.598;2022-12-04T14:05:24;4.40;97.30
46139;DHT22;32398;49.112;8.598;2022-12-04T14:07:56;4.40;97.40
46139;DHT22;32398;49.112;8.598;2022-12-04T14:10:24;4.40;97.40
46139;DHT22;32398;49.112;8.598;2022-12-04T14:12:57;4.40;97.40
46139;DHT22;32398;49.112;8.598;2022-12-04T14:15:24;4.40;97.40
46139;DHT22;32398;49.112;8.598;2022-12-04T14:17:56;4.40;97.50
46139;DHT22;32398;49.112;8.598;2022-12-04T14:20:24;4.40;97.50
46139;DHT22;32398;49.112;8.598;2022-12-04T14:22:51;4.40;97.50
46139;DHT22;32398;49.112;8.598;2022-12-04T14:25:22;4.40;97.50
46139;DHT22;32398;49.112;8.598;2022-12-04T14:27:50;4.50;97.60
46139;DHT22;32398;49.112;8.598;2022-12-04T14:30:19;4.40;97.50
46139;DHT22;32398;49.112;8.598;2022-12-04T14:32:47;4.40;97.50
46139;DHT22;32398;49.112;8.598;2022-12-04T14:35:15;4.40;97.60
46139;DHT22;32398;49.112;8.598;2022-12-04T14:37:43;4.40;97.60
46139;DHT22;32398;49.112;8.598;2022-12-04T14:40:15;4.50;97.50
46139;DHT22;32398;49.112;8.598;2022-12-04T14:42:45;4.40;97.50
46139;DHT22;32398;49.112;8.598;2022-12-04T14:45:16;4.50;97.50
46139;DHT22;32398;49.112;8.598;2022-12-04T14:47:47;4.40;97.50
46139;DHT22;32398;49.112;8.598;2022-12-04T14:50:23;4.40;97.50
46139;DHT22;32398;49.112;8.598;2022-12-04T14:52:52;4.40;97.50
46139;DHT22;32398;49.112;8.598;2022-12-04T14:55:21;4.40;97.50
46139;DHT22;32398;49.112;8.598;2022-12-04T14:57:51;4.40;97.50
46139;DHT22;32398;49.112;8.598;2022-12-04T15:00:19;4.40;97.50
46139;DHT22;32398;49.112;8.598;2022-12-04T15:02:48;4.40;97.50
46139;DHT22;32398;49.112;8.598;2022-12-04T15:05:17;4.40;97.50
46139;DHT22;32398;49.112;8.598;2022-12-04T15:07:44;4.40;97.50
46139;DHT22;32398;49.112;8.598;2022-12-04T15:10:16;4.40;97.50
46139;DHT22;32398;49.112;8.598;2022-12-04T15:13:01;4.50;97.60
46139;DHT22;32398;49.112;8.598;2022-12-04T15:15:28;4.40;97.60
46139;DHT22;32398;49.112;8.598;2022-12-04T15:18:00;4.40;97.60
46139;DHT22;32398;49.112;8.598;2022-12-04T15:20:28;4.50;97.70
46139;DHT22;32398;49.112;8.598;2022-12-04T15:22:55;4.40;97.60
46139;DHT22;32398;49.112;8.598;2022-12-04T15:25:24;4.40;97.50
46139;DHT22;32398;49.112;8.598;2022-12-04T15:27:52;4.40;97.50
46139;DHT22;32398;49.112;8.598;2022-12-04T15:30:19;4.40;97.50
46139;DHT22;32398;49.112;8.598;2022-12-04T15:32:47;4.40;97.60
46139;DHT22;32398;49.112;8.598;2022-12-04T15:35:18;4.40;97.60
46139;DHT22;32398;49.112;8.598;2022-12-04T15:37:45;4.40;97.60
46139;DHT22;32398;49.112;8.598;2022-12-04T15:40:17;4.40;97.60
46139;DHT22;32398;49.112;8.598;2022-12-04T15:42:44;4.40;97.50
46139;DHT22;32398;49.112;8.598;2022-12-04T15:45:23;4.40;97.60
46139;DHT22;32398;49.112;8.598;2022-12-04T15:47:51;4.40;97.60
46139;DHT22;32398;49.112;8.598;2022-12-04T15:50:21;4.40;97.60
46139;DHT22;32398;49.112;8.598;2022-12-04T15:52:49;4.40;97.70
46139;DHT22;32398;49.112;8.598;2022-12-04T15:55:17;4.40;97.70
46139;DHT22;32398;49.112;8.598;2022-12-04T15:57:49;4.40;97.70
46139;DHT22;32398;49.112;8.598;2022-12-04T16:00:21;4.40;97.70
46139;DHT22;32398;49.112;8.598;2022-12-04T16:02:48;4.40;97.70
46139;DHT22;32398;49.112;8.598;2022-12-04T16:05:25;4.40;97.70